createdAt,value
2022-08-24T00:05:21.043Z,19.91
2022-08-24T00:15:26.696Z,19.81
2022-08-24T00:20:29.194Z,19.72
2022-08-24T00:25:32.019Z,19.69
2022-08-24T00:40:39.712Z,19.58
2022-08-24T00:45:45.259Z,19.57
2022-08-24T00:50:48.390Z,19.51
2022-08-24T00:55:51.121Z,19.44
2022-08-24T01:00:53.852Z,19.45
2022-08-24T01:11:18.975Z,19.38
2022-08-24T01:16:23.638Z,19.35
2022-08-24T01:21:26.378Z,19.27
2022-08-24T01:26:29.208Z,19.2
2022-08-24T01:31:31.819Z,19.18
2022-08-24T01:41:37.248Z,19.12
2022-08-24T01:46:40.196Z,19.17
2022-08-24T01:51:43.103Z,19.21
2022-08-24T01:56:45.828Z,19.21
2022-08-24T02:01:48.420Z,19.24
2022-08-24T02:06:51.056Z,19.22
2022-08-24T02:11:53.848Z,19.19
2022-08-24T02:16:56.550Z,19.19
2022-08-24T02:21:59.459Z,19.29
2022-08-24T02:27:02.219Z,19.24
2022-08-24T02:32:04.809Z,19.19
2022-08-24T02:37:07.549Z,19.14
2022-08-24T02:42:10.326Z,19.15
2022-08-24T02:47:13.062Z,19.17
2022-08-24T02:52:15.655Z,19.19
2022-08-24T02:57:18.444Z,19.33
2022-08-24T03:02:20.994Z,19.35
2022-08-24T03:07:23.756Z,19.42
2022-08-24T03:12:26.802Z,19.44
2022-08-24T03:17:29.444Z,19.35
2022-08-24T03:22:32.150Z,19.33
2022-08-24T03:27:35.114Z,19.36
2022-08-24T03:32:37.741Z,19.35
2022-08-24T03:37:40.547Z,19.33
2022-08-24T03:42:43.141Z,19.33
2022-08-24T03:47:45.726Z,19.33
2022-08-24T03:52:48.515Z,19.28
2022-08-24T03:57:51.463Z,19.19
2022-08-24T04:02:54.148Z,19.23
2022-08-24T04:07:56.872Z,19.1
2022-08-24T04:18:05.386Z,19.07
2022-08-24T04:23:07.868Z,19.05
2022-08-24T04:28:10.571Z,19.08
2022-08-24T04:33:13.391Z,19.13
2022-08-24T04:38:16.174Z,19.23
2022-08-24T04:48:27.342Z,19.46
2022-08-24T04:53:30.008Z,19.49
2022-08-24T04:58:32.631Z,19.68
2022-08-24T05:03:35.405Z,20.01
2022-08-24T05:08:37.942Z,20.2
2022-08-24T05:13:40.521Z,20.39
2022-08-24T05:23:45.997Z,20.82
2022-08-24T05:33:51.830Z,21.41
2022-08-24T05:38:54.612Z,21.72
2022-08-24T05:43:57.622Z,21.71
2022-08-24T05:54:06.155Z,22.35
2022-08-24T05:59:11.604Z,22.2
2022-08-24T06:09:19.923Z,22.24
2022-08-24T06:14:26.441Z,22.13
2022-08-24T06:19:25.411Z,22.6
2022-08-24T06:24:31.105Z,22.34
2022-08-24T06:29:33.697Z,23.21
2022-08-24T06:34:36.373Z,23.04
2022-08-24T06:39:39.175Z,23.71
2022-08-24T06:49:44.777Z,24.2
2022-08-24T06:54:47.374Z,24.32
2022-08-24T06:59:50.087Z,23.72
2022-08-24T07:04:52.588Z,24.06
2022-08-24T07:09:55.076Z,23.61
2022-08-24T07:25:02.964Z,23.01
2022-08-24T07:30:25.634Z,22.85
2022-08-24T07:45:14.841Z,25.09
2022-08-24T07:50:17.675Z,25.24
2022-08-24T07:55:20.367Z,24.55
2022-08-24T08:05:25.821Z,24.54
2022-08-24T08:10:28.470Z,24.02
2022-08-24T08:15:31.262Z,24.41
2022-08-24T08:20:33.744Z,24.76
2022-08-24T08:25:36.427Z,24.46
2022-08-24T08:30:39.092Z,24.8
2022-08-24T08:40:47.576Z,25.48
2022-08-24T08:45:50.348Z,25.67
2022-08-24T08:50:52.968Z,25.97
2022-08-24T08:55:55.518Z,25.37
2022-08-24T09:06:01.014Z,25.86
2022-08-24T09:11:03.463Z,25.57
2022-08-24T09:16:09.824Z,25.43
2022-08-24T09:21:08.707Z,25.41
2022-08-24T09:26:12.108Z,25.36
2022-08-24T09:31:14.016Z,25.58
2022-08-24T09:36:16.463Z,25.21
2022-08-24T09:41:19.279Z,25.99
2022-08-24T09:46:21.924Z,25.66
2022-08-24T09:51:24.579Z,26.46
2022-08-24T09:56:27.238Z,25.83
2022-08-24T10:01:30.120Z,26.48
2022-08-24T10:06:32.621Z,25.72
2022-08-24T10:11:34.823Z,25.51
2022-08-24T10:16:37.571Z,25.64
2022-08-24T10:21:40.554Z,26.64
2022-08-24T10:26:43.947Z,26.21
2022-08-24T10:31:45.783Z,25.44
2022-08-24T10:36:48.196Z,25.16
2022-08-24T10:41:50.691Z,25.19
2022-08-24T10:46:56.665Z,25.26
2022-08-24T10:56:59.056Z,24.94
2022-08-24T11:02:01.803Z,25.56
2022-08-24T11:07:04.280Z,25.29
2022-08-24T11:12:07.317Z,25.48
2022-08-24T11:17:10.083Z,25.99
2022-08-24T11:22:12.956Z,25.8
2022-08-24T11:27:15.639Z,26.77
2022-08-24T11:32:18.568Z,27.47
2022-08-24T11:37:23.760Z,26.07
2022-08-24T11:42:27.371Z,26.29
2022-08-24T11:47:26.013Z,26.31
2022-08-24T11:52:28.877Z,26.91
2022-08-24T11:57:31.624Z,27.56
2022-08-24T12:07:37.251Z,29.8
2022-08-24T12:12:40.188Z,29.93
2022-08-24T12:17:42.861Z,29.92
2022-08-24T12:22:45.166Z,29.2
2022-08-24T12:27:47.942Z,29.41
2022-08-24T12:32:50.398Z,27.78
2022-08-24T12:37:52.812Z,28.43
2022-08-24T12:42:55.466Z,27.94
2022-08-24T12:47:58.002Z,26.85
2022-08-24T12:53:00.515Z,26.54
2022-08-24T12:58:03.336Z,27
2022-08-24T13:03:05.858Z,27.51
2022-08-24T13:08:08.945Z,28.64
2022-08-24T13:13:11.869Z,29.66
2022-08-24T13:18:14.738Z,30.1
2022-08-24T13:23:17.683Z,30.44
2022-08-24T13:28:20.123Z,28.61
2022-08-24T13:33:22.116Z,27.5
2022-08-24T13:38:24.664Z,27.27
2022-08-24T13:43:27.185Z,27.12
2022-08-24T13:54:28.270Z,27.98
2022-08-24T13:59:31.013Z,28.52
2022-08-24T14:04:33.640Z,28.83
2022-08-24T14:09:37.293Z,28.8
2022-08-24T14:14:38.371Z,28.25
2022-08-24T14:19:41.157Z,28.8
2022-08-24T14:24:46.033Z,28.45
2022-08-24T14:29:46.047Z,28.19
2022-08-24T14:34:48.782Z,28.42
2022-08-24T14:39:51.744Z,28.6
2022-08-24T14:44:54.518Z,28.74
2022-08-24T14:50:39.707Z,27.78
2022-08-24T14:55:42.772Z,27.64
2022-08-24T15:00:44.527Z,27.37
2022-08-24T15:05:59.106Z,27.21
2022-08-24T15:10:51.506Z,27.13
2022-08-24T15:15:54.195Z,27.14
2022-08-24T15:20:56.959Z,27.12
2022-08-24T15:25:59.676Z,27.36
2022-08-24T15:31:02.476Z,27.71
2022-08-24T15:36:05.103Z,27.66
2022-08-24T15:41:07.553Z,27.77
2022-08-24T15:46:10.221Z,27.73
2022-08-24T15:51:12.980Z,28
2022-08-24T15:56:15.853Z,28.68
2022-08-24T16:01:18.846Z,28.25
2022-08-24T16:06:21.378Z,27.95
2022-08-24T16:11:24.145Z,27.78
2022-08-24T16:16:26.678Z,27.4
2022-08-24T16:21:29.143Z,27.1
2022-08-24T16:26:31.698Z,26.92
2022-08-24T16:31:34.539Z,26.84
2022-08-24T16:36:37.233Z,26.88
2022-08-24T16:41:39.813Z,26.99
2022-08-24T16:46:42.502Z,27.04
2022-08-24T16:51:45.634Z,27.01
2022-08-24T16:56:48.203Z,26.96
2022-08-24T17:01:50.680Z,26.83
2022-08-24T17:06:53.477Z,26.83
2022-08-24T17:11:56.244Z,26.67
2022-08-24T17:16:59.075Z,26.57
2022-08-24T17:22:01.825Z,26.53
2022-08-24T17:27:04.615Z,26.53
2022-08-24T17:32:07.645Z,26.41
2022-08-24T17:37:10.397Z,26.37
2022-08-24T17:42:33.935Z,26.27
2022-08-24T17:47:15.636Z,26.15
2022-08-24T17:52:18.597Z,26.1
2022-08-24T17:57:21.462Z,26.03
2022-08-24T18:02:24.012Z,25.9
2022-08-24T18:07:42.660Z,25.71
2022-08-24T18:12:29.361Z,25.65
2022-08-24T18:17:31.807Z,25.53
2022-08-24T18:27:37.222Z,25.38
2022-08-24T18:32:40.224Z,25.28
2022-08-24T18:37:44.598Z,25.17
2022-08-24T18:42:47.273Z,25.1
2022-08-24T18:47:53.039Z,25.04
2022-08-24T18:52:52.933Z,24.91
2022-08-24T18:57:55.582Z,24.82
2022-08-24T19:02:58.410Z,24.73
2022-08-24T19:08:01.152Z,24.66
2022-08-24T19:13:03.816Z,24.57
2022-08-24T19:18:06.346Z,24.5
2022-08-24T19:23:09.270Z,24.43
2022-08-24T19:28:11.819Z,24.34
2022-08-24T19:33:14.799Z,24.31
2022-08-24T19:38:17.991Z,24.25
2022-08-24T19:43:19.941Z,24.21
2022-08-24T19:48:22.483Z,24.12
2022-08-24T19:53:25.248Z,24.03
2022-08-24T19:58:27.873Z,23.94
2022-08-24T20:03:30.394Z,23.88
2022-08-24T20:08:33.206Z,23.8
2022-08-24T20:13:35.690Z,23.73
2022-08-24T20:18:38.423Z,23.65
2022-08-24T20:23:41.090Z,23.56
2022-08-24T20:28:43.386Z,23.46
2022-08-24T20:33:46.179Z,23.39
2022-08-24T20:38:48.785Z,23.34
2022-08-24T20:43:51.756Z,23.27
2022-08-24T20:48:55.474Z,23.19
2022-08-24T20:53:56.975Z,23.1
2022-08-24T20:58:59.669Z,23.09
2022-08-24T21:04:05.193Z,23
2022-08-24T21:09:05.309Z,22.94
2022-08-24T21:14:08.131Z,22.88
2022-08-24T21:19:10.863Z,22.81
2022-08-24T21:24:13.568Z,22.78
2022-08-24T21:29:16.511Z,22.73
2022-08-24T21:34:19.058Z,22.67
2022-08-24T21:39:21.760Z,22.63
2022-08-24T21:44:24.392Z,22.58
2022-08-24T21:54:29.978Z,22.5
2022-08-24T21:59:32.807Z,22.46
2022-08-24T22:04:35.522Z,22.44
2022-08-24T22:09:38.434Z,22.41
2022-08-24T22:14:41.173Z,22.35
2022-08-24T22:19:44.203Z,22.3
2022-08-24T22:24:46.735Z,22.24
2022-08-24T22:29:52.610Z,22.23
2022-08-24T22:34:52.356Z,22.16
2022-08-24T22:44:57.624Z,22.08
2022-08-24T22:50:00.222Z,22.04
2022-08-24T22:55:03.012Z,22
2022-08-24T23:00:05.794Z,21.94
2022-08-24T23:05:08.415Z,21.93
2022-08-24T23:10:10.934Z,21.88
2022-08-24T23:15:31.795Z,21.86
2022-08-24T23:20:34.535Z,21.82
2022-08-24T23:25:37.230Z,21.73
2022-08-24T23:35:45.297Z,21.62
2022-08-24T23:45:50.424Z,21.56
2022-08-24T23:50:53.256Z,21.53
2022-08-24T23:55:55.952Z,21.48
